createdAt,value
2023-04-17T00:02:02.970Z,68.47
2023-04-17T00:04:30.893Z,71.20
2023-04-17T00:06:59.368Z,74.83
2023-04-17T00:09:26.031Z,73.87
2023-04-17T00:11:52.333Z,68.30
2023-04-17T00:14:18.634Z,76.97
2023-04-17T00:16:44.956Z,73.17
2023-04-17T00:19:11.818Z,78.17
2023-04-17T00:21:38.208Z,79.33
2023-04-17T00:24:04.588Z,70.17
2023-04-17T00:26:32.396Z,71.77
2023-04-17T00:28:58.668Z,72.97
2023-04-17T00:31:24.978Z,79.53
2023-04-17T00:33:51.254Z,69.40
2023-04-17T00:36:17.554Z,59.27
2023-04-17T00:38:43.903Z,61.97
2023-04-17T00:41:10.480Z,64.10
2023-04-17T00:43:36.962Z,63.23
2023-04-17T00:46:04.091Z,63.30
2023-04-17T00:48:30.606Z,62.27
2023-04-17T00:51:01.925Z,66.23
2023-04-17T00:53:31.894Z,66.83
2023-04-17T00:56:03.461Z,68.70
2023-04-17T00:58:29.864Z,65.20
2023-04-17T01:00:56.218Z,69.73
2023-04-17T01:03:23.056Z,69.07
2023-04-17T01:05:50.246Z,71.00
2023-04-17T01:08:16.994Z,67.87
2023-04-17T01:10:43.228Z,69.50
2023-04-17T01:13:09.622Z,63.33
2023-04-17T01:15:36.212Z,70.53
2023-04-17T01:18:03.016Z,63.67
2023-04-17T01:20:32.913Z,73.87
2023-04-17T01:22:59.564Z,67.83
2023-04-17T01:25:26.358Z,75.83
2023-04-17T01:27:52.696Z,76.57
2023-04-17T01:30:19.180Z,73.10
2023-04-17T01:32:45.515Z,70.57
2023-04-17T01:35:11.954Z,71.90
2023-04-17T01:37:38.274Z,72.90
2023-04-17T01:40:06.891Z,70.77
2023-04-17T01:42:33.902Z,73.50
2023-04-17T01:45:00.208Z,69.67
2023-04-17T01:47:26.597Z,75.67
2023-04-17T01:49:52.866Z,72.23
2023-04-17T01:52:19.198Z,70.37
2023-04-17T01:54:45.542Z,69.67
2023-04-17T01:57:11.829Z,71.57
2023-04-17T01:59:38.191Z,68.83
2023-04-17T02:02:04.573Z,70.27
2023-04-17T02:04:31.169Z,72.40
2023-04-17T02:06:57.526Z,64.43
2023-04-17T02:09:23.756Z,67.83
2023-04-17T02:11:50.047Z,72.07
2023-04-17T02:14:17.862Z,66.03
2023-04-17T02:16:45.624Z,68.57
2023-04-17T02:19:12.423Z,71.87
2023-04-17T02:21:38.906Z,68.47
2023-04-17T02:24:05.461Z,67.43
2023-04-17T02:26:31.782Z,69.00
2023-04-17T02:28:58.102Z,71.37
2023-04-17T02:31:24.444Z,68.23
2023-04-17T02:33:50.723Z,68.33
2023-04-17T02:36:16.991Z,62.73
2023-04-17T02:38:43.217Z,64.97
2023-04-17T02:41:10.136Z,73.33
2023-04-17T02:43:37.166Z,66.30
2023-04-17T02:46:03.437Z,68.63
2023-04-17T02:48:29.731Z,74.67
2023-04-17T02:50:56.005Z,67.67
2023-04-17T02:53:22.366Z,71.27
2023-04-17T02:55:48.651Z,72.00
2023-04-17T02:58:14.980Z,66.83
2023-04-17T03:00:41.371Z,66.60
2023-04-17T03:03:08.249Z,67.87
2023-04-17T03:05:34.617Z,68.90
2023-04-17T03:08:01.014Z,69.33
2023-04-17T03:10:27.326Z,69.13
2023-04-17T03:12:53.617Z,64.63
2023-04-17T03:15:19.965Z,70.10
2023-04-17T03:17:47.089Z,64.60
2023-04-17T03:20:15.606Z,68.10
2023-04-17T03:22:42.024Z,68.73
2023-04-17T03:25:08.985Z,70.70
2023-04-17T03:27:35.532Z,68.33
2023-04-17T03:30:01.800Z,67.80
2023-04-17T03:32:28.118Z,68.23
2023-04-17T03:34:54.377Z,68.07
2023-04-17T03:37:20.702Z,69.53
2023-04-17T03:39:46.918Z,72.50
2023-04-17T03:42:14.542Z,74.80
2023-04-17T03:44:41.022Z,72.60
2023-04-17T03:47:07.243Z,72.47
2023-04-17T03:49:33.626Z,69.87
2023-04-17T03:52:00.079Z,76.87
2023-04-17T03:54:26.397Z,78.20
2023-04-17T03:56:52.665Z,76.80
2023-04-17T03:59:19.048Z,77.83
2023-04-17T04:01:46.877Z,81.10
2023-04-17T04:04:13.503Z,76.20
2023-04-17T04:06:41.016Z,80.67
2023-04-17T04:09:07.375Z,81.33
2023-04-17T04:11:33.679Z,84.47
2023-04-17T04:13:59.942Z,83.70
2023-04-17T04:16:27.168Z,83.67
2023-04-17T04:18:53.575Z,82.20
2023-04-17T04:21:19.807Z,81.37
2023-04-17T04:23:46.126Z,83.83
2023-04-17T04:26:12.486Z,77.57
2023-04-17T04:28:38.926Z,75.00
2023-04-17T04:31:05.648Z,80.60
2023-04-17T04:33:32.027Z,82.80
2023-04-17T04:36:00.981Z,79.10
2023-04-17T04:38:30.735Z,72.73
2023-04-17T04:41:01.480Z,76.40
2023-04-17T04:43:33.326Z,76.23
2023-04-17T04:45:59.612Z,74.40
2023-04-17T04:48:25.852Z,74.53
2023-04-17T04:50:52.456Z,79.67
2023-04-17T04:53:18.732Z,73.47
2023-04-17T04:55:45.220Z,78.53
2023-04-17T04:58:11.529Z,77.90
2023-04-17T05:00:37.989Z,76.33
2023-04-17T05:03:04.468Z,77.47
2023-04-17T05:05:31.076Z,76.10
2023-04-17T05:07:57.274Z,93.70
2023-04-17T05:10:23.591Z,77.83
2023-04-17T05:12:49.842Z,78.70
2023-04-17T05:15:16.124Z,78.07
2023-04-17T05:17:43.254Z,74.57
2023-04-17T05:20:09.970Z,78.73
2023-04-17T05:22:36.257Z,75.03
2023-04-17T05:25:02.595Z,74.60
2023-04-17T05:27:28.855Z,83.43
2023-04-17T05:29:55.161Z,73.70
2023-04-17T05:32:21.717Z,76.37
2023-04-17T05:34:48.057Z,78.00
2023-04-17T05:37:14.274Z,75.57
2023-04-17T05:39:40.560Z,77.57
2023-04-17T05:42:06.829Z,71.23
2023-04-17T05:44:33.089Z,75.50
2023-04-17T05:47:00.185Z,72.17
2023-04-17T05:49:26.877Z,79.03
2023-04-17T05:51:53.188Z,78.03
2023-04-17T05:54:19.551Z,71.50
2023-04-17T05:56:45.796Z,70.27
2023-04-17T05:59:12.167Z,67.80
2023-04-17T06:01:39.543Z,69.23
2023-04-17T06:04:06.691Z,68.00
2023-04-17T06:06:33.236Z,65.93
2023-04-17T06:08:59.495Z,69.37
2023-04-17T06:11:25.814Z,62.10
2023-04-17T06:13:52.135Z,62.37
2023-04-17T06:16:18.616Z,61.37
2023-04-17T06:18:45.183Z,60.60
2023-04-17T06:21:13.788Z,61.00
2023-04-17T06:23:40.224Z,60.20
2023-04-17T06:26:06.673Z,54.43
2023-04-17T06:28:32.954Z,53.17
2023-04-17T06:30:59.331Z,54.00
2023-04-17T06:33:26.931Z,51.80
2023-04-17T06:35:53.311Z,75.60
2023-04-17T06:38:19.535Z,57.23
2023-04-17T06:40:46.588Z,49.47
2023-04-17T06:43:13.133Z,45.97
2023-04-17T06:45:42.897Z,43.50
2023-04-17T06:48:09.325Z,39.20
2023-04-17T06:50:35.921Z,41.07
2023-04-17T06:53:02.239Z,38.80
2023-04-17T06:55:28.749Z,48.33
2023-04-17T06:57:55.072Z,42.70
2023-04-17T07:00:21.728Z,37.93
2023-04-17T07:02:48.116Z,39.27
2023-04-17T07:05:14.739Z,35.50
2023-04-17T07:07:41.490Z,38.80
2023-04-17T07:10:07.871Z,34.47
2023-04-17T07:12:34.229Z,34.63
2023-04-17T07:15:00.666Z,35.20
2023-04-17T07:17:27.368Z,33.27
2023-04-17T07:19:53.758Z,34.53
2023-04-17T07:22:20.705Z,33.33
2023-04-17T07:24:46.942Z,34.17
2023-04-17T07:27:13.167Z,36.37
2023-04-17T07:29:39.523Z,39.57
2023-04-17T07:32:06.870Z,33.00
2023-04-17T07:34:34.261Z,32.60
2023-04-17T07:37:01.195Z,32.07
2023-04-17T07:39:30.578Z,34.43
2023-04-17T07:41:56.992Z,34.77
2023-04-17T07:44:23.245Z,33.93
2023-04-17T07:46:49.635Z,36.27
2023-04-17T07:49:16.409Z,34.20
2023-04-17T07:51:43.032Z,42.40
2023-04-17T07:54:09.340Z,43.07
2023-04-17T07:56:36.599Z,38.20
2023-04-17T07:59:03.489Z,36.33
2023-04-17T08:01:29.783Z,37.57
2023-04-17T08:03:56.359Z,37.23
2023-04-17T08:06:23.305Z,36.53
2023-04-17T08:08:49.549Z,38.07
2023-04-17T08:11:15.889Z,41.27
2023-04-17T08:13:42.222Z,38.70
2023-04-17T08:16:09.072Z,40.90
2023-04-17T08:18:37.420Z,36.53
2023-04-17T08:21:04.853Z,39.57
2023-04-17T08:23:31.242Z,39.70
2023-04-17T08:25:58.036Z,39.63
2023-04-17T08:28:24.937Z,39.40
2023-04-17T08:30:51.455Z,40.47
2023-04-17T08:33:18.394Z,40.50
2023-04-17T08:35:44.932Z,42.30
2023-04-17T08:38:14.002Z,41.80
2023-04-17T08:40:42.671Z,40.17
2023-04-17T08:43:16.074Z,40.57
2023-04-17T08:45:53.533Z,40.87
2023-04-17T08:48:20.898Z,40.93
2023-04-17T08:50:51.030Z,43.37
2023-04-17T08:53:17.901Z,45.07
2023-04-17T08:55:44.877Z,45.33
2023-04-17T08:58:11.676Z,41.33
2023-04-17T09:00:39.126Z,42.53
2023-04-17T09:03:07.551Z,40.77
2023-04-17T09:05:35.060Z,42.77
2023-04-17T09:08:12.239Z,37.70
2023-04-17T09:10:43.059Z,35.30
2023-04-17T09:13:10.345Z,34.73
2023-04-17T09:15:36.747Z,33.37
2023-04-17T09:18:03.634Z,31.60
2023-04-17T09:20:30.254Z,33.63
2023-04-17T09:23:01.277Z,31.90
2023-04-17T09:25:28.179Z,27.67
2023-04-17T09:27:55.790Z,30.03
2023-04-17T09:30:24.444Z,28.50
2023-04-17T09:33:02.378Z,28.87
2023-04-17T09:35:28.762Z,29.63
2023-04-17T09:37:56.171Z,27.83
2023-04-17T09:40:23.393Z,28.53
2023-04-17T09:43:00.254Z,32.47
2023-04-17T09:45:35.497Z,27.00
2023-04-17T09:48:15.152Z,29.00
2023-04-17T09:50:41.427Z,26.97
2023-04-17T09:53:07.967Z,26.57
2023-04-17T09:55:36.464Z,26.73
2023-04-17T09:58:04.513Z,28.07
2023-04-17T10:00:31.138Z,29.07
2023-04-17T10:02:58.871Z,25.40
2023-04-17T10:05:27.074Z,27.73
2023-04-17T10:07:53.481Z,41.20
2023-04-17T10:10:26.938Z,27.30
2023-04-17T10:12:55.735Z,27.53
2023-04-17T10:15:23.269Z,26.30
2023-04-17T10:17:49.996Z,28.03
2023-04-17T10:20:23.003Z,25.57
2023-04-17T10:22:56.654Z,22.30
2023-04-17T10:25:26.735Z,19.27
2023-04-17T10:27:54.234Z,18.53
2023-04-17T10:30:22.677Z,19.87
2023-04-17T10:33:09.932Z,19.57
2023-04-17T10:35:36.736Z,20.10
2023-04-17T10:38:04.141Z,20.03
2023-04-17T10:40:31.596Z,19.03
2023-04-17T10:43:07.131Z,18.97
2023-04-17T10:45:52.322Z,18.30
2023-04-17T10:48:22.933Z,16.47
2023-04-17T10:50:49.360Z,52.43
2023-04-17T10:53:34.057Z,20.27
2023-04-17T10:56:02.346Z,19.67
2023-04-17T10:58:31.581Z,16.63
2023-04-17T11:01:03.207Z,18.97
2023-04-17T11:03:30.869Z,16.93
2023-04-17T11:05:58.768Z,15.97
2023-04-17T11:08:25.201Z,13.93
2023-04-17T11:10:57.930Z,16.83
2023-04-17T11:13:24.269Z,13.77
2023-04-17T11:15:51.082Z,14.83
2023-04-17T11:18:18.281Z,15.33
2023-04-17T11:20:45.122Z,14.50
2023-04-17T11:23:11.367Z,11.03
2023-04-17T11:25:40.102Z,13.67
2023-04-17T11:28:06.537Z,12.77
2023-04-17T11:30:34.310Z,11.80
2023-04-17T11:33:01.409Z,13.43
2023-04-17T11:35:28.957Z,15.00
2023-04-17T11:38:21.389Z,16.23
2023-04-17T11:40:52.813Z,13.00
2023-04-17T11:43:20.032Z,11.40
2023-04-17T11:45:47.284Z,13.37
2023-04-17T11:48:14.855Z,13.00
2023-04-17T11:50:42.430Z,14.07
2023-04-17T11:53:11.995Z,11.17
2023-04-17T11:55:38.230Z,9.60
2023-04-17T11:58:06.540Z,9.23
2023-04-17T12:00:33.241Z,9.53
2023-04-17T12:03:00.867Z,8.67
2023-04-17T12:05:28.409Z,11.10
2023-04-17T12:08:02.157Z,9.50
2023-04-17T12:10:42.003Z,9.97
2023-04-17T12:13:09.041Z,9.30
2023-04-17T12:15:35.463Z,9.40
2023-04-17T12:18:05.838Z,11.40
2023-04-17T12:20:32.789Z,9.20
2023-04-17T12:22:59.174Z,8.63
2023-04-17T12:25:25.471Z,9.93
2023-04-17T12:27:51.769Z,16.13
2023-04-17T12:30:18.084Z,11.77
2023-04-17T12:32:48.613Z,11.67
2023-04-17T12:35:15.852Z,10.50
2023-04-17T12:37:44.173Z,8.47
2023-04-17T12:40:10.642Z,11.20
2023-04-17T12:42:46.436Z,10.73
2023-04-17T12:45:15.585Z,9.33
2023-04-17T12:47:42.436Z,11.20
2023-04-17T12:50:09.142Z,10.70
2023-04-17T12:52:35.815Z,10.77
2023-04-17T12:55:02.691Z,8.93
2023-04-17T12:57:29.034Z,8.80
2023-04-17T12:59:55.725Z,8.57
2023-04-17T13:02:23.647Z,8.33
2023-04-17T13:04:53.325Z,8.63
2023-04-17T13:07:20.419Z,6.80
2023-04-17T13:09:46.774Z,8.80
2023-04-17T13:12:13.373Z,9.30
2023-04-17T13:14:39.801Z,6.80
2023-04-17T13:17:06.531Z,7.70
2023-04-17T13:19:33.547Z,8.03
2023-04-17T13:21:59.934Z,7.97
2023-04-17T13:24:26.524Z,7.17
2023-04-17T13:26:53.006Z,8.90
2023-04-17T13:29:19.916Z,7.30
2023-04-17T13:31:46.399Z,7.30
2023-04-17T13:34:12.805Z,14.87
2023-04-17T13:36:39.125Z,12.27
2023-04-17T13:39:05.426Z,8.97
2023-04-17T13:41:31.788Z,7.23
2023-04-17T13:43:58.132Z,9.47
2023-04-17T13:46:24.611Z,6.60
2023-04-17T13:48:51.245Z,4.93
2023-04-17T13:51:17.522Z,5.00
2023-04-17T13:53:43.844Z,7.80
2023-04-17T13:56:10.124Z,4.87
2023-04-17T13:58:36.390Z,4.67
2023-04-17T14:01:02.638Z,7.23
2023-04-17T14:03:30.635Z,9.57
2023-04-17T14:05:57.056Z,23.77
2023-04-17T14:08:23.706Z,8.17
2023-04-17T14:10:49.988Z,3.77
2023-04-17T14:13:16.493Z,4.13
2023-04-17T14:15:43.048Z,6.20
2023-04-17T14:18:12.572Z,5.43
2023-04-17T14:20:39.166Z,4.63
2023-04-17T14:23:05.507Z,5.37
2023-04-17T14:25:31.791Z,4.77
2023-04-17T14:27:58.099Z,5.17
2023-04-17T14:30:24.426Z,5.93
2023-04-17T14:32:52.690Z,8.10
2023-04-17T14:35:19.544Z,8.63
2023-04-17T14:37:45.932Z,5.70
2023-04-17T14:40:12.471Z,7.50
2023-04-17T14:42:53.134Z,6.60
2023-04-17T14:45:20.650Z,9.10
2023-04-17T14:47:47.002Z,6.50
2023-04-17T14:50:13.391Z,8.60
2023-04-17T14:52:39.656Z,6.97
2023-04-17T14:55:06.015Z,7.63
2023-04-17T14:57:32.376Z,8.03
2023-04-17T14:59:58.716Z,9.10
2023-04-17T15:02:25.419Z,8.20
2023-04-17T15:04:51.806Z,8.40
2023-04-17T15:07:18.177Z,14.47
2023-04-17T15:09:44.573Z,8.53
2023-04-17T15:12:11.265Z,6.90
2023-04-17T15:14:37.610Z,8.83
2023-04-17T15:17:06.814Z,7.30
2023-04-17T15:19:33.776Z,10.53
2023-04-17T15:22:00.178Z,6.77
2023-04-17T15:24:26.709Z,6.77
2023-04-17T15:26:52.976Z,9.37
2023-04-17T15:29:19.231Z,6.10
2023-04-17T15:31:45.506Z,6.23
2023-04-17T15:34:13.485Z,5.87
2023-04-17T15:36:39.806Z,6.30
2023-04-17T15:39:06.230Z,7.90
2023-04-17T15:41:32.458Z,7.30
2023-04-17T15:43:58.750Z,6.33
2023-04-17T15:46:25.174Z,6.77
2023-04-17T15:49:05.017Z,9.17
2023-04-17T15:51:34.361Z,6.37
2023-04-17T15:54:00.676Z,9.50
2023-04-17T15:56:26.948Z,7.57
2023-04-17T15:58:53.236Z,8.20
2023-04-17T16:01:19.544Z,8.50
2023-04-17T16:03:46.057Z,11.50
2023-04-17T16:06:12.553Z,7.87
2023-04-17T16:08:38.833Z,8.73
2023-04-17T16:11:05.282Z,6.97
2023-04-17T16:13:31.719Z,8.17
2023-04-17T16:15:58.100Z,6.30
2023-04-17T16:18:24.383Z,7.03
2023-04-17T16:20:50.871Z,7.07
2023-04-17T16:23:17.195Z,6.47
2023-04-17T16:25:43.569Z,11.70
2023-04-17T16:28:09.817Z,11.63
2023-04-17T16:30:36.074Z,16.30
2023-04-17T16:33:02.676Z,10.53
2023-04-17T16:35:30.029Z,16.57
2023-04-17T16:37:56.325Z,10.37
2023-04-17T16:40:22.626Z,10.27
2023-04-17T16:42:48.883Z,10.53
2023-04-17T16:45:15.223Z,12.10
2023-04-17T16:47:41.620Z,10.47
2023-04-17T16:50:10.449Z,7.50
2023-04-17T16:52:38.834Z,10.47
2023-04-17T16:55:05.410Z,12.67
2023-04-17T16:57:32.118Z,9.80
2023-04-17T16:59:58.408Z,8.80
2023-04-17T17:02:24.802Z,12.23
2023-04-17T17:04:51.193Z,9.20
2023-04-17T17:07:17.475Z,9.23
2023-04-17T17:09:43.785Z,8.00
2023-04-17T17:12:10.902Z,10.13
2023-04-17T17:14:37.182Z,9.03
2023-04-17T17:17:03.448Z,8.57
2023-04-17T17:19:29.709Z,10.00
2023-04-17T17:21:56.116Z,7.50
2023-04-17T17:24:22.385Z,8.90
2023-04-17T17:26:48.664Z,9.65
2023-04-17T17:29:15.211Z,6.75
2023-04-17T17:31:41.696Z,7.63
2023-04-17T17:34:22.626Z,7.43
2023-04-17T17:36:52.684Z,25.00
2023-04-17T17:39:19.062Z,10.15
2023-04-17T17:41:47.391Z,10.90
2023-04-17T17:44:14.368Z,7.55
2023-04-17T17:46:41.013Z,9.75
2023-04-17T17:49:07.269Z,7.60
2023-04-17T17:51:33.610Z,9.43
2023-04-17T17:53:59.965Z,9.23
2023-04-17T17:56:26.284Z,12.07
2023-04-17T17:58:52.675Z,10.03
2023-04-17T18:01:19.183Z,13.37
2023-04-17T18:03:47.372Z,9.57
2023-04-17T18:06:15.754Z,9.63
2023-04-17T18:08:42.008Z,9.07
2023-04-17T18:11:08.394Z,9.63
2023-04-17T18:13:35.232Z,10.70
2023-04-17T18:16:04.754Z,11.90
2023-04-17T18:18:31.278Z,10.73
2023-04-17T18:20:57.570Z,9.17
2023-04-17T18:23:23.807Z,9.57
2023-04-17T18:25:59.613Z,10.17
2023-04-17T18:28:26.134Z,9.03
2023-04-17T18:30:52.524Z,9.90
2023-04-17T18:33:19.164Z,10.83
2023-04-17T18:35:45.574Z,9.20
2023-04-17T18:38:11.959Z,8.10
2023-04-17T18:40:38.258Z,9.93
2023-04-17T18:43:05.986Z,9.70
2023-04-17T18:45:32.528Z,8.17
2023-04-17T18:47:58.901Z,13.10
2023-04-17T18:50:26.794Z,15.80
2023-04-17T18:52:53.045Z,11.07
2023-04-17T18:55:19.492Z,8.67
2023-04-17T18:57:45.760Z,10.97
2023-04-17T19:00:12.706Z,9.27
2023-04-17T19:02:40.463Z,10.10
2023-04-17T19:05:07.128Z,12.10
2023-04-17T19:07:33.413Z,12.73
2023-04-17T19:09:59.751Z,13.33
2023-04-17T19:12:26.227Z,15.47
2023-04-17T19:14:52.465Z,16.03
2023-04-17T19:17:18.786Z,15.43
2023-04-17T19:19:45.143Z,15.87
2023-04-17T19:22:11.472Z,14.63
2023-04-17T19:24:37.981Z,14.30
2023-04-17T19:27:04.604Z,13.70
2023-04-17T19:29:32.098Z,14.23
2023-04-17T19:31:58.404Z,14.27
2023-04-17T19:34:24.782Z,15.33
2023-04-17T19:36:51.286Z,14.10
2023-04-17T19:39:17.559Z,13.10
2023-04-17T19:41:50.430Z,12.27
2023-04-17T19:44:16.654Z,12.30
2023-04-17T19:46:42.946Z,13.90
2023-04-17T19:49:11.811Z,22.10
2023-04-17T19:51:41.203Z,19.37
2023-04-17T19:54:09.875Z,16.70
2023-04-17T19:56:36.137Z,15.50
2023-04-17T19:59:02.855Z,13.57
2023-04-17T20:01:30.036Z,14.97
2023-04-17T20:03:56.552Z,10.80
2023-04-17T20:06:23.070Z,13.10
2023-04-17T20:08:49.373Z,12.93
2023-04-17T20:11:15.913Z,11.90
2023-04-17T20:13:42.264Z,15.33
2023-04-17T20:16:08.742Z,10.10
2023-04-17T20:18:37.170Z,13.50
2023-04-17T20:21:06.503Z,10.73
2023-04-17T20:23:32.868Z,12.97
2023-04-17T20:25:59.126Z,14.27
2023-04-17T20:28:28.519Z,12.43
2023-04-17T20:30:54.957Z,11.67
2023-04-17T20:33:22.437Z,11.70
2023-04-17T20:35:48.770Z,14.80
2023-04-17T20:38:15.122Z,14.17
2023-04-17T20:40:41.433Z,11.97
2023-04-17T20:43:07.745Z,12.40
2023-04-17T20:45:34.046Z,13.20
2023-04-17T20:48:00.351Z,13.00
2023-04-17T20:50:26.682Z,11.07
2023-04-17T20:52:52.950Z,12.97
2023-04-17T20:55:19.908Z,11.80
2023-04-17T20:57:46.787Z,11.17
2023-04-17T21:00:13.348Z,11.63
2023-04-17T21:02:39.759Z,12.57
2023-04-17T21:05:07.060Z,12.17
2023-04-17T21:07:33.339Z,11.57
2023-04-17T21:09:59.597Z,12.57
2023-04-17T21:12:26.008Z,11.67
2023-04-17T21:14:52.320Z,12.63
2023-04-17T21:17:18.661Z,11.57
2023-04-17T21:19:45.904Z,14.23
2023-04-17T21:22:12.894Z,13.60
2023-04-17T21:24:39.538Z,17.00
2023-04-17T21:27:05.888Z,14.33
2023-04-17T21:29:32.186Z,13.63
2023-04-17T21:31:58.585Z,16.37
2023-04-17T21:34:25.508Z,12.87
2023-04-17T21:36:52.873Z,11.17
2023-04-17T21:39:19.167Z,13.83
2023-04-17T21:41:45.500Z,11.10
2023-04-17T21:44:12.012Z,13.20
2023-04-17T21:46:38.826Z,14.43
2023-04-17T21:49:05.151Z,14.37
2023-04-17T21:51:31.668Z,14.77
2023-04-17T21:53:58.064Z,14.13
2023-04-17T21:56:24.400Z,14.70
2023-04-17T21:58:51.581Z,15.27
2023-04-17T22:01:17.856Z,17.13
2023-04-17T22:03:44.270Z,15.43
2023-04-17T22:06:10.542Z,13.13
2023-04-17T22:08:36.805Z,14.47
2023-04-17T22:11:05.251Z,12.70
2023-04-17T22:13:31.498Z,14.00
2023-04-17T22:15:58.555Z,14.90
2023-04-17T22:18:26.052Z,16.73
2023-04-17T22:20:52.320Z,16.33
2023-04-17T22:23:18.652Z,15.90
2023-04-17T22:25:45.051Z,17.87
2023-04-17T22:28:11.302Z,13.47
2023-04-17T22:30:37.556Z,13.40
2023-04-17T22:33:03.977Z,13.40
2023-04-17T22:35:30.424Z,13.43
2023-04-17T22:37:56.747Z,12.17
2023-04-17T22:40:23.049Z,14.30
2023-04-17T22:42:50.182Z,13.40
2023-04-17T22:45:16.575Z,14.47
2023-04-17T22:47:42.895Z,12.43
2023-04-17T22:50:10.538Z,12.90
2023-04-17T22:52:37.103Z,13.00
2023-04-17T22:55:03.997Z,13.17
2023-04-17T22:57:30.484Z,15.63
2023-04-17T22:59:56.710Z,16.77
2023-04-17T23:02:23.018Z,15.53
2023-04-17T23:04:49.332Z,13.73
2023-04-17T23:07:15.625Z,13.20
2023-04-17T23:09:41.847Z,16.17
2023-04-17T23:12:08.217Z,14.37
2023-04-17T23:14:34.494Z,14.40
2023-04-17T23:17:00.785Z,16.70
2023-04-17T23:19:27.181Z,15.10
2023-04-17T23:21:53.440Z,14.93
2023-04-17T23:24:19.766Z,16.87
2023-04-17T23:26:48.403Z,15.90
2023-04-17T23:29:14.643Z,15.47
2023-04-17T23:31:42.653Z,15.83
2023-04-17T23:34:09.079Z,15.23
2023-04-17T23:36:35.417Z,15.07
2023-04-17T23:39:01.744Z,15.37
2023-04-17T23:41:29.550Z,17.43
2023-04-17T23:43:58.812Z,15.23
2023-04-17T23:46:25.166Z,16.40
2023-04-17T23:48:51.526Z,17.03
2023-04-17T23:51:18.155Z,16.83
2023-04-17T23:53:45.241Z,15.27
2023-04-17T23:56:11.494Z,15.90
2023-04-17T23:58:38.128Z,18.47
